createdAt,value
2023-03-02T00:02:05.654Z,4.29
2023-03-02T00:04:52.763Z,4.31
2023-03-02T00:07:29.705Z,4.59
2023-03-02T00:09:56.177Z,4.86
2023-03-02T00:12:23.348Z,5.04
2023-03-02T00:14:49.918Z,5.14
2023-03-02T00:17:16.324Z,5.21
2023-03-02T00:19:44.242Z,5.30
2023-03-02T00:22:11.324Z,5.36
2023-03-02T00:24:37.932Z,5.38
2023-03-02T00:27:04.364Z,5.33
2023-03-02T00:29:30.732Z,5.13
2023-03-02T00:31:57.221Z,4.98
2023-03-02T00:34:23.861Z,4.95
2023-03-02T00:36:50.342Z,4.83
2023-03-02T00:39:19.380Z,4.80
2023-03-02T00:41:46.789Z,4.85
2023-03-02T00:44:16.902Z,4.79
2023-03-02T00:46:44.586Z,4.72
2023-03-02T00:49:12.151Z,4.64
2023-03-02T00:51:38.654Z,4.50
2023-03-02T00:54:05.565Z,4.34
2023-03-02T00:56:32.303Z,3.95
2023-03-02T00:59:17.676Z,3.44
2023-03-02T01:01:44.095Z,2.92
2023-03-02T01:04:10.792Z,2.55
2023-03-02T01:06:46.600Z,2.23
2023-03-02T01:09:13.100Z,1.96
2023-03-02T01:11:39.684Z,1.86
2023-03-02T01:14:06.142Z,1.80
2023-03-02T01:16:33.595Z,1.79
2023-03-02T01:19:00.394Z,1.78
2023-03-02T01:21:26.823Z,1.77
2023-03-02T01:23:53.387Z,1.70
2023-03-02T01:26:19.930Z,1.57
2023-03-02T01:28:46.306Z,1.58
2023-03-02T01:31:12.890Z,1.65
2023-03-02T01:33:39.473Z,1.70
2023-03-02T01:36:07.035Z,1.73
2023-03-02T01:38:33.515Z,1.76
2023-03-02T01:40:59.961Z,1.69
2023-03-02T01:43:28.660Z,1.54
2023-03-02T01:45:58.975Z,1.57
2023-03-02T01:48:30.139Z,1.77
2023-03-02T01:50:58.014Z,1.92
2023-03-02T01:53:30.658Z,2.02
2023-03-02T01:55:59.025Z,1.96
2023-03-02T01:58:28.503Z,1.84
2023-03-02T02:00:56.085Z,1.80
2023-03-02T02:03:28.243Z,1.68
2023-03-02T02:06:07.817Z,1.62
2023-03-02T02:08:35.770Z,1.61
2023-03-02T02:11:03.007Z,1.59
2023-03-02T02:13:29.714Z,1.55
2023-03-02T02:15:56.219Z,1.65
2023-03-02T02:18:22.707Z,1.92
2023-03-02T02:20:54.019Z,2.08
2023-03-02T02:23:39.084Z,2.16
2023-03-02T02:26:49.298Z,2.15
2023-03-02T02:29:26.726Z,1.91
2023-03-02T02:32:06.364Z,1.72
2023-03-02T02:34:41.904Z,1.59
2023-03-02T02:37:19.736Z,1.53
2023-03-02T02:39:49.174Z,1.61
2023-03-02T02:42:23.808Z,1.80
2023-03-02T02:44:56.442Z,1.98
2023-03-02T02:47:23.855Z,2.09
2023-03-02T02:49:54.613Z,2.12
2023-03-02T02:52:26.357Z,2.00
2023-03-02T02:54:56.347Z,1.92
2023-03-02T02:57:27.509Z,1.96
2023-03-02T02:59:59.103Z,2.01
2023-03-02T03:02:30.853Z,1.92
2023-03-02T03:05:01.974Z,1.76
2023-03-02T03:07:31.061Z,1.62
2023-03-02T03:10:19.965Z,1.55
2023-03-02T03:12:46.962Z,1.57
2023-03-02T03:15:14.931Z,1.60
2023-03-02T03:17:54.299Z,1.63
2023-03-02T03:20:23.840Z,1.68
2023-03-02T03:22:52.918Z,1.74
2023-03-02T03:25:26.524Z,1.76
2023-03-02T03:27:52.972Z,1.74
2023-03-02T03:30:19.897Z,1.67
2023-03-02T03:32:46.332Z,1.80
2023-03-02T03:35:13.104Z,2.28
2023-03-02T03:37:41.460Z,2.72
2023-03-02T03:40:10.887Z,3.07
2023-03-02T03:42:38.514Z,3.35
2023-03-02T03:45:08.000Z,3.44
2023-03-02T03:47:35.479Z,3.44
2023-03-02T03:50:02.111Z,3.26
2023-03-02T03:52:31.361Z,3.14
2023-03-02T03:55:01.802Z,3.08
2023-03-02T03:57:28.797Z,2.93
2023-03-02T03:59:55.248Z,2.75
2023-03-02T04:02:22.300Z,2.58
2023-03-02T04:04:48.812Z,2.58
2023-03-02T04:07:15.586Z,2.61
2023-03-02T04:09:42.552Z,2.52
2023-03-02T04:12:09.909Z,2.34
2023-03-02T04:14:36.457Z,2.34
2023-03-02T04:17:04.869Z,2.29
2023-03-02T04:19:32.067Z,2.23
2023-03-02T04:22:01.288Z,2.31
2023-03-02T04:24:27.680Z,2.27
2023-03-02T04:26:54.153Z,2.20
2023-03-02T04:29:20.693Z,2.20
2023-03-02T04:31:47.877Z,2.26
2023-03-02T04:34:14.330Z,2.28
2023-03-02T04:36:41.116Z,2.11
2023-03-02T04:39:08.672Z,2.05
2023-03-02T04:41:36.076Z,2.03
2023-03-02T04:44:03.734Z,2.02
2023-03-02T04:46:30.481Z,2.01
2023-03-02T04:48:57.568Z,1.77
2023-03-02T04:51:37.845Z,1.54
2023-03-02T04:54:10.435Z,1.35
2023-03-02T04:56:37.141Z,1.21
2023-03-02T04:59:03.625Z,1.08
2023-03-02T05:01:30.279Z,0.96
2023-03-02T05:03:56.785Z,0.89
2023-03-02T05:06:24.599Z,0.92
2023-03-02T05:08:53.022Z,1.02
2023-03-02T05:11:29.238Z,1.11
2023-03-02T05:14:00.700Z,1.16
2023-03-02T05:16:32.276Z,1.20
2023-03-02T05:19:01.736Z,1.23
2023-03-02T05:21:28.448Z,1.25
2023-03-02T05:23:55.565Z,1.28
2023-03-02T05:26:22.517Z,1.33
2023-03-02T05:28:49.005Z,1.41
2023-03-02T05:31:41.782Z,1.36
2023-03-02T05:34:13.117Z,1.33
2023-03-02T05:36:39.923Z,1.28
2023-03-02T05:39:07.348Z,1.16
2023-03-02T05:41:35.428Z,1.05
2023-03-02T05:44:02.033Z,0.97
2023-03-02T05:46:28.708Z,0.92
2023-03-02T05:48:55.371Z,0.89
2023-03-02T05:51:22.119Z,0.88
2023-03-02T05:53:48.826Z,0.89
2023-03-02T05:56:15.921Z,0.92
2023-03-02T05:58:42.406Z,0.97
2023-03-02T06:01:12.249Z,1.01
2023-03-02T06:03:42.665Z,1.04
2023-03-02T06:06:13.312Z,1.09
2023-03-02T06:08:41.287Z,1.13
2023-03-02T06:11:08.360Z,1.18
2023-03-02T06:13:35.791Z,1.22
2023-03-02T06:16:02.913Z,1.28
2023-03-02T06:18:29.413Z,1.37
2023-03-02T06:20:55.976Z,1.45
2023-03-02T06:23:22.580Z,1.50
2023-03-02T06:25:49.067Z,1.57
2023-03-02T06:28:21.341Z,1.64
2023-03-02T06:30:49.226Z,1.72
2023-03-02T06:33:18.411Z,1.77
2023-03-02T06:35:45.317Z,1.82
2023-03-02T06:38:12.645Z,1.85
2023-03-02T06:40:39.261Z,1.96
2023-03-02T06:43:05.714Z,2.25
2023-03-02T06:45:33.208Z,2.44
2023-03-02T06:48:01.420Z,2.46
2023-03-02T06:50:28.248Z,2.46
2023-03-02T06:52:55.601Z,2.89
2023-03-02T06:55:22.153Z,3.64
2023-03-02T06:57:48.652Z,4.30
2023-03-02T07:00:17.256Z,4.53
2023-03-02T07:02:44.619Z,4.69
2023-03-02T07:05:12.316Z,5.23
2023-03-02T07:07:39.091Z,5.78
2023-03-02T07:10:07.328Z,5.88
2023-03-02T07:12:34.324Z,5.65
2023-03-02T07:15:00.793Z,5.30
2023-03-02T07:17:27.640Z,4.96
2023-03-02T07:19:54.151Z,4.67
2023-03-02T07:22:21.467Z,4.77
2023-03-02T07:24:48.069Z,5.21
2023-03-02T07:27:14.632Z,5.72
2023-03-02T07:29:41.116Z,6.10
2023-03-02T07:32:07.653Z,6.40
2023-03-02T07:34:34.162Z,6.67
2023-03-02T07:37:00.667Z,6.95
2023-03-02T07:39:27.418Z,7.27
2023-03-02T07:41:59.512Z,7.70
2023-03-02T07:44:27.663Z,8.00
2023-03-02T07:46:54.408Z,7.37
2023-03-02T07:49:20.965Z,6.64
2023-03-02T07:51:47.483Z,6.07
2023-03-02T07:54:13.934Z,5.66
2023-03-02T07:56:40.764Z,5.38
2023-03-02T07:59:07.307Z,5.72
2023-03-02T08:01:34.202Z,6.46
2023-03-02T08:04:00.975Z,6.98
2023-03-02T08:06:27.537Z,7.45
2023-03-02T08:08:54.254Z,7.85
2023-03-02T08:11:20.863Z,8.01
2023-03-02T08:13:47.289Z,7.52
2023-03-02T08:16:15.112Z,7.00
2023-03-02T08:18:42.812Z,6.62
2023-03-02T08:21:22.332Z,6.31
2023-03-02T08:23:50.251Z,6.06
2023-03-02T08:26:19.234Z,6.22
2023-03-02T08:28:46.578Z,6.96
2023-03-02T08:31:13.826Z,7.58
2023-03-02T08:33:41.057Z,8.05
2023-03-02T08:36:14.076Z,8.15
2023-03-02T08:38:41.294Z,7.66
2023-03-02T08:41:13.938Z,7.19
2023-03-02T08:43:40.890Z,6.83
2023-03-02T08:46:07.919Z,6.56
2023-03-02T08:48:34.465Z,6.36
2023-03-02T08:51:10.960Z,6.24
2023-03-02T08:53:41.306Z,6.67
2023-03-02T08:56:25.266Z,7.52
2023-03-02T08:58:55.310Z,7.79
2023-03-02T09:01:27.472Z,7.55
2023-03-02T09:03:54.475Z,7.22
2023-03-02T09:06:21.410Z,6.95
2023-03-02T09:08:48.990Z,6.75
2023-03-02T09:11:16.095Z,6.62
2023-03-02T09:13:43.089Z,6.51
2023-03-02T09:16:11.222Z,6.47
2023-03-02T09:18:37.662Z,6.51
2023-03-02T09:21:05.100Z,6.70
2023-03-02T09:23:33.224Z,7.03
2023-03-02T09:25:59.613Z,7.33
2023-03-02T09:28:26.300Z,7.60
2023-03-02T09:30:57.921Z,7.82
2023-03-02T09:33:25.193Z,8.01
2023-03-02T09:35:52.025Z,7.97
2023-03-02T09:38:19.339Z,7.93
2023-03-02T09:40:48.720Z,7.95
2023-03-02T09:43:47.342Z,7.98
2023-03-02T09:46:29.439Z,8.06
2023-03-02T09:49:30.198Z,8.20
2023-03-02T09:52:29.751Z,8.31
2023-03-02T09:55:22.010Z,8.46
2023-03-02T09:57:51.198Z,8.56
2023-03-02T10:00:36.745Z,8.62
2023-03-02T10:03:17.699Z,8.65
2023-03-02T10:05:48.904Z,8.65
2023-03-02T10:08:28.976Z,8.68
2023-03-02T10:11:14.449Z,8.75
2023-03-02T10:13:52.112Z,8.79
2023-03-02T10:16:36.585Z,8.82
2023-03-02T10:19:15.563Z,8.81
2023-03-02T10:21:48.370Z,8.80
2023-03-02T10:24:34.331Z,8.83
2023-03-02T10:27:26.441Z,8.83
2023-03-02T10:30:08.405Z,8.84
2023-03-02T10:32:52.270Z,8.85
2023-03-02T10:35:26.212Z,8.84
2023-03-02T10:38:16.895Z,8.84
2023-03-02T10:40:51.585Z,8.84
2023-03-02T10:43:36.780Z,8.87
2023-03-02T10:46:10.935Z,8.94
2023-03-02T10:49:00.568Z,8.98
2023-03-02T10:51:34.620Z,9.02
2023-03-02T10:54:13.309Z,9.06
2023-03-02T10:56:51.680Z,9.13
2023-03-02T10:59:40.366Z,9.12
2023-03-02T11:02:24.367Z,9.05
2023-03-02T11:04:57.721Z,8.98
2023-03-02T11:07:28.340Z,8.99
2023-03-02T11:10:04.968Z,9.08
2023-03-02T11:12:35.987Z,9.16
2023-03-02T11:15:20.901Z,9.19
2023-03-02T11:18:16.084Z,9.26
2023-03-02T11:20:49.929Z,9.35
2023-03-02T11:23:23.560Z,9.39
2023-03-02T11:26:04.410Z,9.33
2023-03-02T11:29:11.382Z,9.22
2023-03-02T11:31:52.823Z,9.15
2023-03-02T11:34:39.896Z,9.05
2023-03-02T11:37:21.517Z,8.98
2023-03-02T11:39:54.952Z,8.90
2023-03-02T11:42:40.612Z,8.85
2023-03-02T11:45:13.320Z,8.81
2023-03-02T11:47:54.280Z,8.82
2023-03-02T11:50:25.743Z,8.80
2023-03-02T11:53:10.486Z,8.75
2023-03-02T11:55:47.763Z,8.75
2023-03-02T11:58:24.716Z,8.78
2023-03-02T12:00:54.119Z,8.79
2023-03-02T12:03:29.675Z,8.75
2023-03-02T12:06:01.572Z,8.72
2023-03-02T12:08:40.233Z,8.71
2023-03-02T12:11:15.831Z,8.69
2023-03-02T12:13:58.908Z,8.69
2023-03-02T12:16:35.114Z,8.72
2023-03-02T12:19:15.554Z,8.75
2023-03-02T12:22:09.980Z,8.76
2023-03-02T12:24:40.317Z,8.68
2023-03-02T12:27:25.853Z,8.58
2023-03-02T12:30:10.550Z,8.48
2023-03-02T12:32:37.620Z,8.40
2023-03-02T12:35:07.094Z,8.36
2023-03-02T12:37:56.449Z,8.39
2023-03-02T12:41:12.136Z,8.45
2023-03-02T12:44:01.102Z,8.44
2023-03-02T12:46:34.445Z,8.31
2023-03-02T12:49:29.010Z,8.20
2023-03-02T12:52:02.432Z,8.10
2023-03-02T12:54:34.220Z,8.07
2023-03-02T12:57:19.759Z,8.01
2023-03-02T12:59:57.707Z,7.86
2023-03-02T13:02:34.169Z,7.76
2023-03-02T13:05:08.166Z,7.71
2023-03-02T13:07:41.427Z,7.68
2023-03-02T13:10:14.453Z,7.70
2023-03-02T13:12:45.627Z,7.74
2023-03-02T13:15:16.938Z,7.75
2023-03-02T13:17:51.360Z,7.76
2023-03-02T13:20:21.778Z,7.79
2023-03-02T13:22:48.478Z,7.84
2023-03-02T13:25:30.029Z,7.85
2023-03-02T13:28:06.949Z,7.78
2023-03-02T13:30:36.739Z,7.69
2023-03-02T13:33:20.565Z,7.60
2023-03-02T13:35:47.696Z,7.55
2023-03-02T13:38:26.412Z,7.58
2023-03-02T13:40:55.178Z,7.64
2023-03-02T13:43:40.497Z,7.64
2023-03-02T13:46:13.147Z,7.60
2023-03-02T13:48:39.952Z,7.57
2023-03-02T13:51:17.499Z,7.54
2023-03-02T13:54:01.429Z,7.49
2023-03-02T13:56:43.347Z,7.43
2023-03-02T13:59:17.058Z,7.33
2023-03-02T14:01:43.948Z,7.30
2023-03-02T14:04:13.470Z,7.27
2023-03-02T14:06:40.035Z,7.21
2023-03-02T14:09:06.501Z,7.14
2023-03-02T14:11:44.444Z,7.07
2023-03-02T14:14:22.034Z,7.01
2023-03-02T14:16:50.243Z,6.98
2023-03-02T14:19:17.988Z,6.96
2023-03-02T14:21:48.538Z,6.95
2023-03-02T14:24:15.410Z,6.95
2023-03-02T14:26:48.410Z,6.95
2023-03-02T14:29:28.156Z,6.93
2023-03-02T14:32:00.254Z,6.93
2023-03-02T14:34:26.803Z,6.91
2023-03-02T14:36:58.622Z,6.84
2023-03-02T14:39:42.668Z,6.76
2023-03-02T14:42:17.302Z,6.66
2023-03-02T14:44:46.574Z,6.56
2023-03-02T14:47:15.950Z,6.48
2023-03-02T14:49:43.487Z,6.42
2023-03-02T14:52:22.846Z,6.37
2023-03-02T14:54:55.645Z,6.36
2023-03-02T14:57:26.704Z,6.32
2023-03-02T14:59:55.461Z,6.24
2023-03-02T15:02:26.031Z,6.15
2023-03-02T15:04:56.694Z,6.16
2023-03-02T15:07:28.018Z,6.51
2023-03-02T15:09:57.049Z,6.72
2023-03-02T15:12:24.850Z,6.78
2023-03-02T15:14:51.424Z,6.82
2023-03-02T15:17:17.923Z,6.85
2023-03-02T15:19:44.339Z,6.87
2023-03-02T15:22:14.346Z,6.85
2023-03-02T15:24:41.162Z,6.84
2023-03-02T15:27:07.987Z,6.89
2023-03-02T15:29:34.570Z,6.95
2023-03-02T15:32:01.132Z,7.02
2023-03-02T15:34:28.214Z,7.12
2023-03-02T15:37:00.765Z,7.10
2023-03-02T15:39:28.208Z,7.04
2023-03-02T15:41:54.724Z,7.05
2023-03-02T15:44:24.180Z,7.13
2023-03-02T15:46:57.727Z,7.16
2023-03-02T15:49:26.650Z,7.13
2023-03-02T15:51:59.042Z,7.08
2023-03-02T15:54:28.232Z,7.03
2023-03-02T15:56:55.157Z,6.95
2023-03-02T15:59:26.189Z,6.83
2023-03-02T16:01:58.565Z,6.74
2023-03-02T16:04:26.718Z,6.64
2023-03-02T16:06:54.369Z,6.48
2023-03-02T16:09:22.404Z,6.31
2023-03-02T16:11:50.016Z,6.15
2023-03-02T16:14:17.072Z,6.02
2023-03-02T16:16:45.437Z,5.86
2023-03-02T16:19:16.625Z,5.71
2023-03-02T16:21:44.866Z,5.54
2023-03-02T16:24:12.448Z,5.41
2023-03-02T16:26:39.022Z,5.29
2023-03-02T16:29:08.952Z,5.16
2023-03-02T16:31:39.629Z,5.04
2023-03-02T16:34:09.104Z,4.94
2023-03-02T16:36:39.339Z,4.74
2023-03-02T16:39:08.431Z,4.42
2023-03-02T16:41:36.690Z,4.12
2023-03-02T16:44:03.395Z,3.85
2023-03-02T16:46:36.654Z,3.61
2023-03-02T16:49:04.340Z,3.41
2023-03-02T16:51:31.482Z,3.28
2023-03-02T16:53:58.123Z,3.22
2023-03-02T16:56:24.918Z,3.13
2023-03-02T16:58:51.825Z,3.07
2023-03-02T17:01:21.028Z,3.01
2023-03-02T17:03:50.131Z,2.97
2023-03-02T17:06:21.586Z,2.94
2023-03-02T17:08:50.280Z,2.90
2023-03-02T17:11:17.619Z,2.86
2023-03-02T17:13:44.364Z,2.80
2023-03-02T17:16:12.178Z,2.77
2023-03-02T17:18:40.330Z,2.71
2023-03-02T17:21:07.694Z,2.65
2023-03-02T17:23:36.178Z,2.58
2023-03-02T17:26:02.788Z,2.49
2023-03-02T17:28:29.365Z,2.41
2023-03-02T17:30:56.092Z,2.33
2023-03-02T17:33:22.886Z,2.25
2023-03-02T17:35:49.564Z,2.20
2023-03-02T17:38:16.045Z,2.15
2023-03-02T17:40:42.832Z,2.11
2023-03-02T17:43:10.880Z,2.06
2023-03-02T17:45:38.157Z,2.02
2023-03-02T17:48:05.024Z,1.99
2023-03-02T17:50:31.947Z,1.98
2023-03-02T17:52:59.391Z,1.96
2023-03-02T17:55:26.418Z,1.95
2023-03-02T17:57:53.081Z,1.94
2023-03-02T18:00:22.584Z,1.93
2023-03-02T18:02:50.094Z,1.91
2023-03-02T18:05:16.907Z,1.90
2023-03-02T18:07:43.335Z,1.90
2023-03-02T18:10:11.698Z,1.90
2023-03-02T18:12:38.426Z,1.90
2023-03-02T18:15:05.804Z,1.88
2023-03-02T18:17:32.212Z,1.87
2023-03-02T18:19:58.657Z,1.87
2023-03-02T18:22:25.048Z,1.87
2023-03-02T18:24:52.441Z,2.08
2023-03-02T18:27:19.879Z,2.14
2023-03-02T18:29:46.528Z,2.09
2023-03-02T18:32:13.520Z,2.09
2023-03-02T18:34:40.274Z,2.04
2023-03-02T18:37:06.862Z,1.96
2023-03-02T18:39:34.487Z,1.92
2023-03-02T18:42:00.887Z,1.93
2023-03-02T18:44:27.679Z,1.86
2023-03-02T18:46:55.223Z,1.82
2023-03-02T18:49:22.293Z,1.79
2023-03-02T18:51:49.421Z,1.77
2023-03-02T18:54:15.940Z,1.77
2023-03-02T18:56:42.384Z,1.76
2023-03-02T18:59:09.152Z,1.75
2023-03-02T19:01:35.993Z,1.73
2023-03-02T19:04:05.569Z,1.73
2023-03-02T19:06:33.104Z,1.74
2023-03-02T19:08:59.862Z,1.74
2023-03-02T19:11:26.504Z,1.73
2023-03-02T19:13:53.005Z,1.74
2023-03-02T19:16:19.546Z,1.73
2023-03-02T19:18:46.127Z,1.71
2023-03-02T19:21:12.651Z,1.68
2023-03-02T19:23:40.419Z,1.66
2023-03-02T19:26:07.621Z,1.65
2023-03-02T19:28:35.502Z,1.65
2023-03-02T19:31:08.265Z,1.66
2023-03-02T19:33:35.087Z,1.63
2023-03-02T19:36:01.970Z,1.62
2023-03-02T19:38:28.587Z,1.59
2023-03-02T19:40:58.309Z,1.57
2023-03-02T19:43:26.451Z,1.56
2023-03-02T19:45:53.325Z,1.54
2023-03-02T19:48:20.029Z,1.52
2023-03-02T19:50:47.272Z,1.51
2023-03-02T19:53:15.239Z,1.50
2023-03-02T19:55:41.960Z,1.49
2023-03-02T19:58:10.592Z,1.48
2023-03-02T20:00:38.263Z,1.47
2023-03-02T20:03:05.601Z,1.46
2023-03-02T20:05:32.175Z,1.45
2023-03-02T20:07:58.572Z,1.42
2023-03-02T20:10:35.066Z,1.40
2023-03-02T20:13:06.041Z,1.43
2023-03-02T20:15:37.735Z,1.47
2023-03-02T20:18:07.223Z,1.44
2023-03-02T20:20:34.079Z,1.41
2023-03-02T20:23:00.582Z,1.39
2023-03-02T20:25:27.954Z,1.40
2023-03-02T20:27:55.856Z,1.39
2023-03-02T20:30:31.642Z,1.37
2023-03-02T20:32:59.493Z,1.39
2023-03-02T20:35:29.617Z,1.41
2023-03-02T20:37:59.055Z,1.44
2023-03-02T20:40:27.352Z,1.45
2023-03-02T20:42:54.091Z,1.45
2023-03-02T20:45:21.367Z,1.43
2023-03-02T20:47:48.492Z,1.42
2023-03-02T20:50:22.471Z,1.41
2023-03-02T20:52:49.045Z,1.38
2023-03-02T20:55:16.577Z,1.37
2023-03-02T20:57:43.224Z,1.36
2023-03-02T21:00:20.041Z,1.36
2023-03-02T21:02:48.741Z,1.34
2023-03-02T21:05:18.388Z,1.32
2023-03-02T21:07:45.944Z,1.30
2023-03-02T21:10:19.481Z,1.28
2023-03-02T21:12:48.322Z,1.26
2023-03-02T21:15:16.926Z,1.26
2023-03-02T21:17:43.317Z,1.26
2023-03-02T21:20:11.701Z,1.29
2023-03-02T21:22:38.283Z,1.28
2023-03-02T21:25:08.633Z,1.27
2023-03-02T21:27:37.177Z,1.25
2023-03-02T21:30:06.901Z,1.24
2023-03-02T21:32:33.621Z,1.24
2023-03-02T21:35:01.924Z,1.24
2023-03-02T21:37:28.524Z,1.23
2023-03-02T21:39:55.218Z,1.25
2023-03-02T21:42:22.085Z,1.28
2023-03-02T21:44:48.530Z,1.29
2023-03-02T21:47:15.106Z,1.26
2023-03-02T21:49:41.545Z,1.23
2023-03-02T21:52:08.007Z,1.21
2023-03-02T21:54:34.547Z,1.20
2023-03-02T21:57:01.021Z,1.19
2023-03-02T21:59:29.941Z,1.16
2023-03-02T22:01:56.353Z,1.14
2023-03-02T22:04:22.883Z,1.11
2023-03-02T22:06:49.522Z,1.10
2023-03-02T22:09:16.008Z,1.10
2023-03-02T22:11:42.931Z,1.11
2023-03-02T22:14:17.117Z,1.12
2023-03-02T22:16:47.230Z,1.13
2023-03-02T22:19:28.893Z,1.13
2023-03-02T22:22:02.477Z,1.13
2023-03-02T22:24:32.155Z,1.11
2023-03-02T22:27:21.551Z,1.09
2023-03-02T22:29:50.010Z,1.08
2023-03-02T22:32:24.391Z,1.07
2023-03-02T22:34:57.919Z,1.03
2023-03-02T22:37:33.284Z,1.00
2023-03-02T22:40:16.288Z,0.97
2023-03-02T22:42:42.991Z,0.94
2023-03-02T22:45:25.962Z,0.99
2023-03-02T22:47:53.416Z,1.05
2023-03-02T22:50:25.776Z,1.09
2023-03-02T22:52:54.778Z,1.11
2023-03-02T22:55:35.996Z,1.12
2023-03-02T22:58:43.395Z,1.13
2023-03-02T23:01:25.756Z,1.17
2023-03-02T23:04:12.207Z,1.19
2023-03-02T23:06:49.495Z,1.20
2023-03-02T23:09:21.204Z,1.19
2023-03-02T23:11:49.539Z,1.17
2023-03-02T23:14:48.552Z,1.12
2023-03-02T23:17:31.062Z,1.07
2023-03-02T23:19:57.534Z,1.05
2023-03-02T23:22:27.804Z,1.03
2023-03-02T23:24:56.021Z,1.03
2023-03-02T23:27:23.845Z,1.04
2023-03-02T23:29:53.673Z,1.11
2023-03-02T23:32:20.645Z,1.17
2023-03-02T23:34:47.116Z,1.22
2023-03-02T23:37:13.589Z,1.28
2023-03-02T23:39:39.962Z,1.31
2023-03-02T23:42:06.423Z,1.33
2023-03-02T23:44:32.828Z,1.31
2023-03-02T23:46:59.369Z,1.34
2023-03-02T23:49:26.478Z,1.37
2023-03-02T23:51:52.918Z,1.38
2023-03-02T23:54:19.470Z,1.37
2023-03-02T23:56:46.047Z,1.44
2023-03-02T23:59:12.604Z,1.41
